sensor_id;sensor_type;location;lat;lon;timestamp;P1;durP1;ratioP1;P2;durP2;ratioP2
6344;SDS011;3205;42.666;23.264;2023-11-21T00:01:01;24.63;;;10.13;;
6344;SDS011;3205;42.666;23.264;2023-11-21T00:03:29;25.70;;;9.73;;
6344;SDS011;3205;42.666;23.264;2023-11-21T00:05:56;18.57;;;9.67;;
6344;SDS011;3205;42.666;23.264;2023-11-21T00:08:22;21.67;;;9.50;;
6344;SDS011;3205;42.666;23.264;2023-11-21T00:10:48;19.33;;;8.83;;
6344;SDS011;3205;42.666;23.264;2023-11-21T00:13:14;17.90;;;8.67;;
6344;SDS011;3205;42.666;23.264;2023-11-21T00:15:43;21.70;;;9.23;;
6344;SDS011;3205;42.666;23.264;2023-11-21T00:18:09;19.33;;;8.97;;
6344;SDS011;3205;42.666;23.264;2023-11-21T00:20:35;17.07;;;8.97;;
6344;SDS011;3205;42.666;23.264;2023-11-21T00:23:02;22.53;;;10.40;;
6344;SDS011;3205;42.666;23.264;2023-11-21T00:25:28;21.80;;;9.63;;
6344;SDS011;3205;42.666;23.264;2023-11-21T00:27:55;19.50;;;9.93;;
6344;SDS011;3205;42.666;23.264;2023-11-21T00:30:21;20.77;;;10.40;;
6344;SDS011;3205;42.666;23.264;2023-11-21T00:32:47;20.47;;;10.13;;
6344;SDS011;3205;42.666;23.264;2023-11-21T00:35:13;23.23;;;9.83;;
6344;SDS011;3205;42.666;23.264;2023-11-21T00:37:41;18.20;;;9.23;;
6344;SDS011;3205;42.666;23.264;2023-11-21T00:40:09;16.37;;;8.80;;
6344;SDS011;3205;42.666;23.264;2023-11-21T00:42:36;20.90;;;9.90;;
6344;SDS011;3205;42.666;23.264;2023-11-21T00:45:02;23.97;;;10.37;;
6344;SDS011;3205;42.666;23.264;2023-11-21T00:47:29;19.47;;;9.93;;
6344;SDS011;3205;42.666;23.264;2023-11-21T00:49:55;27.57;;;11.77;;
6344;SDS011;3205;42.666;23.264;2023-11-21T00:52:22;25.47;;;11.90;;
6344;SDS011;3205;42.666;23.264;2023-11-21T00:54:48;23.60;;;11.57;;
6344;SDS011;3205;42.666;23.264;2023-11-21T00:57:15;28.50;;;11.33;;
6344;SDS011;3205;42.666;23.264;2023-11-21T00:59:41;26.07;;;10.87;;
6344;SDS011;3205;42.666;23.264;2023-11-21T01:02:07;21.07;;;9.63;;
6344;SDS011;3205;42.666;23.264;2023-11-21T01:04:35;17.43;;;9.90;;
6344;SDS011;3205;42.666;23.264;2023-11-21T01:07:01;19.13;;;9.43;;
6344;SDS011;3205;42.666;23.264;2023-11-21T01:09:28;19.83;;;8.33;;
6344;SDS011;3205;42.666;23.264;2023-11-21T01:11:55;24.80;;;10.10;;
6344;SDS011;3205;42.666;23.264;2023-11-21T01:14:22;19.50;;;10.50;;
6344;SDS011;3205;42.666;23.264;2023-11-21T01:16:49;20.37;;;9.67;;
6344;SDS011;3205;42.666;23.264;2023-11-21T01:19:15;21.67;;;11.07;;
6344;SDS011;3205;42.666;23.264;2023-11-21T01:21:41;21.63;;;10.33;;
6344;SDS011;3205;42.666;23.264;2023-11-21T01:24:07;20.63;;;9.80;;
6344;SDS011;3205;42.666;23.264;2023-11-21T01:26:34;17.00;;;9.67;;
6344;SDS011;3205;42.666;23.264;2023-11-21T01:29:00;19.93;;;11.77;;
6344;SDS011;3205;42.666;23.264;2023-11-21T01:31:27;22.57;;;10.17;;
6344;SDS011;3205;42.666;23.264;2023-11-21T01:33:54;23.83;;;10.60;;
6344;SDS011;3205;42.666;23.264;2023-11-21T01:36:21;26.00;;;11.90;;
6344;SDS011;3205;42.666;23.264;2023-11-21T01:38:47;24.53;;;11.13;;
6344;SDS011;3205;42.666;23.264;2023-11-21T01:41:13;18.63;;;10.73;;
6344;SDS011;3205;42.666;23.264;2023-11-21T01:43:40;21.47;;;11.10;;
6344;SDS011;3205;42.666;23.264;2023-11-21T01:46:06;21.73;;;10.80;;
6344;SDS011;3205;42.666;23.264;2023-11-21T01:48:35;23.30;;;11.67;;
6344;SDS011;3205;42.666;23.264;2023-11-21T01:51:01;27.33;;;10.70;;
6344;SDS011;3205;42.666;23.264;2023-11-21T01:53:28;22.93;;;9.57;;
6344;SDS011;3205;42.666;23.264;2023-11-21T01:55:55;21.00;;;10.47;;
6344;SDS011;3205;42.666;23.264;2023-11-21T01:58:22;19.87;;;9.63;;
6344;SDS011;3205;42.666;23.264;2023-11-21T02:00:48;22.50;;;9.73;;
6344;SDS011;3205;42.666;23.264;2023-11-21T02:03:16;22.43;;;8.97;;
6344;SDS011;3205;42.666;23.264;2023-11-21T02:05:43;22.90;;;10.37;;
6344;SDS011;3205;42.666;23.264;2023-11-21T02:08:09;22.60;;;10.20;;
6344;SDS011;3205;42.666;23.264;2023-11-21T02:10:36;20.60;;;9.30;;
6344;SDS011;3205;42.666;23.264;2023-11-21T02:13:02;27.87;;;9.87;;
6344;SDS011;3205;42.666;23.264;2023-11-21T02:15:28;19.97;;;9.93;;
6344;SDS011;3205;42.666;23.264;2023-11-21T02:17:55;20.87;;;9.37;;
6344;SDS011;3205;42.666;23.264;2023-11-21T02:20:23;25.00;;;10.27;;
6344;SDS011;3205;42.666;23.264;2023-11-21T02:22:52;26.17;;;10.43;;
6344;SDS011;3205;42.666;23.264;2023-11-21T02:25:22;22.83;;;10.03;;
6344;SDS011;3205;42.666;23.264;2023-11-21T02:27:49;22.17;;;10.30;;
6344;SDS011;3205;42.666;23.264;2023-11-21T02:30:16;14.20;;;8.97;;
6344;SDS011;3205;42.666;23.264;2023-11-21T02:32:43;15.17;;;6.90;;
6344;SDS011;3205;42.666;23.264;2023-11-21T02:35:09;12.63;;;6.63;;
6344;SDS011;3205;42.666;23.264;2023-11-21T02:37:37;17.03;;;8.73;;
6344;SDS011;3205;42.666;23.264;2023-11-21T02:40:05;16.50;;;8.10;;
6344;SDS011;3205;42.666;23.264;2023-11-21T02:42:34;20.00;;;8.93;;
6344;SDS011;3205;42.666;23.264;2023-11-21T02:45:01;15.27;;;7.37;;
6344;SDS011;3205;42.666;23.264;2023-11-21T02:47:27;13.40;;;7.17;;
6344;SDS011;3205;42.666;23.264;2023-11-21T02:49:53;13.13;;;6.47;;
6344;SDS011;3205;42.666;23.264;2023-11-21T02:52:20;16.93;;;7.83;;
6344;SDS011;3205;42.666;23.264;2023-11-21T02:54:46;24.73;;;10.47;;
6344;SDS011;3205;42.666;23.264;2023-11-21T02:57:13;23.67;;;10.13;;
6344;SDS011;3205;42.666;23.264;2023-11-21T02:59:38;15.53;;;8.53;;
6344;SDS011;3205;42.666;23.264;2023-11-21T03:02:05;15.37;;;8.40;;
6344;SDS011;3205;42.666;23.264;2023-11-21T03:04:33;15.73;;;8.03;;
6344;SDS011;3205;42.666;23.264;2023-11-21T03:07:00;15.33;;;8.03;;
6344;SDS011;3205;42.666;23.264;2023-11-21T03:09:26;18.23;;;8.40;;
6344;SDS011;3205;42.666;23.264;2023-11-21T03:11:52;15.10;;;7.70;;
6344;SDS011;3205;42.666;23.264;2023-11-21T03:14:19;14.37;;;8.60;;
6344;SDS011;3205;42.666;23.264;2023-11-21T03:16:47;14.20;;;7.30;;
6344;SDS011;3205;42.666;23.264;2023-11-21T03:19:14;16.67;;;7.10;;
6344;SDS011;3205;42.666;23.264;2023-11-21T03:21:40;15.47;;;8.17;;
6344;SDS011;3205;42.666;23.264;2023-11-21T03:24:07;14.10;;;7.30;;
6344;SDS011;3205;42.666;23.264;2023-11-21T03:26:33;14.77;;;8.13;;
6344;SDS011;3205;42.666;23.264;2023-11-21T03:28:59;19.57;;;8.37;;
6344;SDS011;3205;42.666;23.264;2023-11-21T03:31:26;12.97;;;7.57;;
6344;SDS011;3205;42.666;23.264;2023-11-21T03:33:52;17.10;;;8.57;;
6344;SDS011;3205;42.666;23.264;2023-11-21T03:36:18;24.93;;;7.83;;
6344;SDS011;3205;42.666;23.264;2023-11-21T03:38:45;21.40;;;8.33;;
6344;SDS011;3205;42.666;23.264;2023-11-21T03:41:11;14.87;;;8.27;;
6344;SDS011;3205;42.666;23.264;2023-11-21T03:43:37;21.03;;;8.80;;
6344;SDS011;3205;42.666;23.264;2023-11-21T03:46:03;17.90;;;8.50;;
6344;SDS011;3205;42.666;23.264;2023-11-21T03:48:30;19.37;;;9.37;;
6344;SDS011;3205;42.666;23.264;2023-11-21T03:50:58;17.80;;;9.67;;
6344;SDS011;3205;42.666;23.264;2023-11-21T03:53:24;16.23;;;9.63;;
6344;SDS011;3205;42.666;23.264;2023-11-21T03:55:50;18.23;;;9.00;;
6344;SDS011;3205;42.666;23.264;2023-11-21T03:58:16;15.70;;;9.20;;
6344;SDS011;3205;42.666;23.264;2023-11-21T04:00:42;23.33;;;11.23;;
6344;SDS011;3205;42.666;23.264;2023-11-21T04:03:08;27.97;;;10.97;;
6344;SDS011;3205;42.666;23.264;2023-11-21T04:05:35;25.67;;;12.73;;
6344;SDS011;3205;42.666;23.264;2023-11-21T04:08:01;23.53;;;11.60;;
6344;SDS011;3205;42.666;23.264;2023-11-21T04:10:28;21.53;;;11.07;;
6344;SDS011;3205;42.666;23.264;2023-11-21T04:12:54;21.50;;;11.27;;
6344;SDS011;3205;42.666;23.264;2023-11-21T04:15:20;22.20;;;11.27;;
6344;SDS011;3205;42.666;23.264;2023-11-21T04:17:46;27.80;;;12.10;;
6344;SDS011;3205;42.666;23.264;2023-11-21T04:20:13;35.53;;;12.00;;
6344;SDS011;3205;42.666;23.264;2023-11-21T04:22:40;25.47;;;11.87;;
6344;SDS011;3205;42.666;23.264;2023-11-21T04:25:08;32.53;;;10.73;;
6344;SDS011;3205;42.666;23.264;2023-11-21T04:27:36;17.47;;;11.03;;
6344;SDS011;3205;42.666;23.264;2023-11-21T04:30:02;21.67;;;11.77;;
6344;SDS011;3205;42.666;23.264;2023-11-21T04:32:29;23.70;;;11.13;;
6344;SDS011;3205;42.666;23.264;2023-11-21T04:34:55;24.07;;;10.77;;
6344;SDS011;3205;42.666;23.264;2023-11-21T04:37:21;30.57;;;11.50;;
6344;SDS011;3205;42.666;23.264;2023-11-21T04:39:48;30.80;;;11.90;;
6344;SDS011;3205;42.666;23.264;2023-11-21T04:42:14;22.00;;;11.30;;
6344;SDS011;3205;42.666;23.264;2023-11-21T04:44:40;28.57;;;11.10;;
6344;SDS011;3205;42.666;23.264;2023-11-21T04:47:07;28.70;;;12.67;;
6344;SDS011;3205;42.666;23.264;2023-11-21T04:49:33;21.90;;;11.13;;
6344;SDS011;3205;42.666;23.264;2023-11-21T04:51:59;22.03;;;10.60;;
6344;SDS011;3205;42.666;23.264;2023-11-21T04:54:26;24.53;;;11.03;;
6344;SDS011;3205;42.666;23.264;2023-11-21T04:56:53;27.70;;;11.10;;
6344;SDS011;3205;42.666;23.264;2023-11-21T04:59:19;25.07;;;11.77;;
6344;SDS011;3205;42.666;23.264;2023-11-21T05:01:45;26.57;;;11.30;;
6344;SDS011;3205;42.666;23.264;2023-11-21T05:04:12;27.33;;;11.87;;
6344;SDS011;3205;42.666;23.264;2023-11-21T05:06:39;27.30;;;12.90;;
6344;SDS011;3205;42.666;23.264;2023-11-21T05:09:06;25.60;;;11.03;;
6344;SDS011;3205;42.666;23.264;2023-11-21T05:11:37;20.50;;;10.70;;
6344;SDS011;3205;42.666;23.264;2023-11-21T05:14:04;26.53;;;12.53;;
6344;SDS011;3205;42.666;23.264;2023-11-21T05:16:30;24.20;;;11.70;;
6344;SDS011;3205;42.666;23.264;2023-11-21T05:18:57;28.63;;;12.07;;
6344;SDS011;3205;42.666;23.264;2023-11-21T05:21:25;27.33;;;12.70;;
6344;SDS011;3205;42.666;23.264;2023-11-21T05:23:52;34.17;;;13.40;;
6344;SDS011;3205;42.666;23.264;2023-11-21T05:26:18;34.90;;;13.87;;
6344;SDS011;3205;42.666;23.264;2023-11-21T05:28:44;34.80;;;14.10;;
6344;SDS011;3205;42.666;23.264;2023-11-21T05:31:11;22.60;;;12.70;;
6344;SDS011;3205;42.666;23.264;2023-11-21T05:33:37;24.77;;;12.13;;
6344;SDS011;3205;42.666;23.264;2023-11-21T05:36:04;26.53;;;12.67;;
6344;SDS011;3205;42.666;23.264;2023-11-21T05:38:33;26.30;;;13.60;;
6344;SDS011;3205;42.666;23.264;2023-11-21T05:41:00;26.87;;;14.23;;
6344;SDS011;3205;42.666;23.264;2023-11-21T05:43:26;30.10;;;14.03;;
6344;SDS011;3205;42.666;23.264;2023-11-21T05:45:54;33.77;;;15.17;;
6344;SDS011;3205;42.666;23.264;2023-11-21T05:48:21;46.27;;;18.27;;
6344;SDS011;3205;42.666;23.264;2023-11-21T05:50:48;34.43;;;19.20;;
6344;SDS011;3205;42.666;23.264;2023-11-21T05:53:14;45.03;;;20.07;;
6344;SDS011;3205;42.666;23.264;2023-11-21T05:55:41;40.73;;;17.57;;
6344;SDS011;3205;42.666;23.264;2023-11-21T05:58:08;39.90;;;18.80;;
6344;SDS011;3205;42.666;23.264;2023-11-21T06:00:34;39.40;;;17.67;;
6344;SDS011;3205;42.666;23.264;2023-11-21T06:03:01;35.03;;;17.67;;
6344;SDS011;3205;42.666;23.264;2023-11-21T06:05:28;49.27;;;21.37;;
6344;SDS011;3205;42.666;23.264;2023-11-21T06:07:57;38.30;;;20.40;;
6344;SDS011;3205;42.666;23.264;2023-11-21T06:10:24;49.43;;;22.43;;
6344;SDS011;3205;42.666;23.264;2023-11-21T06:12:50;49.63;;;23.07;;
6344;SDS011;3205;42.666;23.264;2023-11-21T06:15:17;42.70;;;22.67;;
6344;SDS011;3205;42.666;23.264;2023-11-21T06:17:44;53.70;;;23.20;;
6344;SDS011;3205;42.666;23.264;2023-11-21T06:20:14;61.83;;;25.30;;
6344;SDS011;3205;42.666;23.264;2023-11-21T06:22:45;68.43;;;27.40;;
6344;SDS011;3205;42.666;23.264;2023-11-21T06:25:14;60.00;;;28.13;;
6344;SDS011;3205;42.666;23.264;2023-11-21T06:27:41;63.53;;;31.30;;
6344;SDS011;3205;42.666;23.264;2023-11-21T06:30:08;62.33;;;28.97;;
6344;SDS011;3205;42.666;23.264;2023-11-21T06:32:35;56.23;;;26.50;;
6344;SDS011;3205;42.666;23.264;2023-11-21T06:35:01;53.30;;;24.60;;
6344;SDS011;3205;42.666;23.264;2023-11-21T06:37:29;54.00;;;25.13;;
6344;SDS011;3205;42.666;23.264;2023-11-21T06:39:57;48.63;;;24.13;;
6344;SDS011;3205;42.666;23.264;2023-11-21T06:42:24;54.80;;;25.37;;
6344;SDS011;3205;42.666;23.264;2023-11-21T06:44:50;49.03;;;23.50;;
6344;SDS011;3205;42.666;23.264;2023-11-21T06:47:17;45.20;;;23.83;;
6344;SDS011;3205;42.666;23.264;2023-11-21T06:49:45;55.03;;;25.30;;
6344;SDS011;3205;42.666;23.264;2023-11-21T06:52:13;56.77;;;24.83;;
6344;SDS011;3205;42.666;23.264;2023-11-21T06:54:39;43.07;;;22.70;;
6344;SDS011;3205;42.666;23.264;2023-11-21T06:57:06;58.20;;;24.87;;
6344;SDS011;3205;42.666;23.264;2023-11-21T06:59:32;51.67;;;23.67;;
6344;SDS011;3205;42.666;23.264;2023-11-21T07:01:58;42.60;;;22.30;;
6344;SDS011;3205;42.666;23.264;2023-11-21T07:04:25;43.43;;;21.63;;
6344;SDS011;3205;42.666;23.264;2023-11-21T07:06:51;51.53;;;21.90;;
6344;SDS011;3205;42.666;23.264;2023-11-21T07:09:17;48.63;;;22.60;;
6344;SDS011;3205;42.666;23.264;2023-11-21T07:11:47;47.03;;;22.10;;
6344;SDS011;3205;42.666;23.264;2023-11-21T07:14:14;40.37;;;21.70;;
6344;SDS011;3205;42.666;23.264;2023-11-21T07:16:40;39.50;;;20.93;;
6344;SDS011;3205;42.666;23.264;2023-11-21T07:19:06;42.20;;;20.50;;
6344;SDS011;3205;42.666;23.264;2023-11-21T07:21:33;54.47;;;22.67;;
6344;SDS011;3205;42.666;23.264;2023-11-21T07:24:00;45.73;;;21.87;;
6344;SDS011;3205;42.666;23.264;2023-11-21T07:26:26;47.83;;;22.83;;
6344;SDS011;3205;42.666;23.264;2023-11-21T07:28:52;39.90;;;21.90;;
6344;SDS011;3205;42.666;23.264;2023-11-21T07:31:20;44.33;;;21.83;;
6344;SDS011;3205;42.666;23.264;2023-11-21T07:33:46;46.53;;;22.17;;
6344;SDS011;3205;42.666;23.264;2023-11-21T07:36:13;44.07;;;21.73;;
6344;SDS011;3205;42.666;23.264;2023-11-21T07:38:39;38.90;;;19.27;;
6344;SDS011;3205;42.666;23.264;2023-11-21T07:41:06;41.97;;;21.57;;
6344;SDS011;3205;42.666;23.264;2023-11-21T07:43:33;40.83;;;21.33;;
6344;SDS011;3205;42.666;23.264;2023-11-21T07:46:00;48.47;;;22.23;;
6344;SDS011;3205;42.666;23.264;2023-11-21T07:48:28;47.27;;;22.07;;
6344;SDS011;3205;42.666;23.264;2023-11-21T07:50:54;55.90;;;22.93;;
6344;SDS011;3205;42.666;23.264;2023-11-21T07:53:21;44.93;;;22.70;;
6344;SDS011;3205;42.666;23.264;2023-11-21T07:55:47;48.20;;;22.97;;
6344;SDS011;3205;42.666;23.264;2023-11-21T07:58:13;42.20;;;22.60;;
6344;SDS011;3205;42.666;23.264;2023-11-21T08:00:39;51.80;;;24.10;;
6344;SDS011;3205;42.666;23.264;2023-11-21T08:03:05;54.00;;;27.70;;
6344;SDS011;3205;42.666;23.264;2023-11-21T08:05:32;59.20;;;26.00;;
6344;SDS011;3205;42.666;23.264;2023-11-21T08:07:59;62.57;;;27.07;;
6344;SDS011;3205;42.666;23.264;2023-11-21T08:10:26;48.93;;;27.13;;
6344;SDS011;3205;42.666;23.264;2023-11-21T08:12:52;52.57;;;27.17;;
6344;SDS011;3205;42.666;23.264;2023-11-21T08:15:18;59.87;;;27.77;;
6344;SDS011;3205;42.666;23.264;2023-11-21T08:17:45;56.83;;;24.97;;
6344;SDS011;3205;42.666;23.264;2023-11-21T08:20:11;51.40;;;26.50;;
6344;SDS011;3205;42.666;23.264;2023-11-21T08:22:41;57.93;;;26.77;;
6344;SDS011;3205;42.666;23.264;2023-11-21T08:25:08;60.53;;;26.63;;
6344;SDS011;3205;42.666;23.264;2023-11-21T08:27:34;60.40;;;25.67;;
6344;SDS011;3205;42.666;23.264;2023-11-21T08:30:00;45.50;;;24.63;;
6344;SDS011;3205;42.666;23.264;2023-11-21T08:32:28;53.07;;;25.70;;
6344;SDS011;3205;42.666;23.264;2023-11-21T08:34:55;49.73;;;24.70;;
6344;SDS011;3205;42.666;23.264;2023-11-21T08:37:21;49.10;;;24.10;;
6344;SDS011;3205;42.666;23.264;2023-11-21T08:39:49;55.97;;;24.83;;
6344;SDS011;3205;42.666;23.264;2023-11-21T08:42:18;41.67;;;20.90;;
6344;SDS011;3205;42.666;23.264;2023-11-21T08:44:44;43.43;;;23.33;;
6344;SDS011;3205;42.666;23.264;2023-11-21T08:47:10;43.80;;;23.13;;
6344;SDS011;3205;42.666;23.264;2023-11-21T08:49:37;53.27;;;23.50;;
6344;SDS011;3205;42.666;23.264;2023-11-21T08:52:03;45.67;;;25.43;;
6344;SDS011;3205;42.666;23.264;2023-11-21T08:54:30;44.00;;;23.60;;
6344;SDS011;3205;42.666;23.264;2023-11-21T08:56:57;46.67;;;22.60;;
6344;SDS011;3205;42.666;23.264;2023-11-21T08:59:25;40.97;;;21.73;;
6344;SDS011;3205;42.666;23.264;2023-11-21T09:01:51;45.20;;;23.20;;
6344;SDS011;3205;42.666;23.264;2023-11-21T09:04:18;44.20;;;21.60;;
6344;SDS011;3205;42.666;23.264;2023-11-21T09:06:44;46.17;;;21.23;;
6344;SDS011;3205;42.666;23.264;2023-11-21T09:09:11;46.07;;;20.13;;
6344;SDS011;3205;42.666;23.264;2023-11-21T09:11:37;44.77;;;19.97;;
6344;SDS011;3205;42.666;23.264;2023-11-21T09:14:05;41.57;;;20.53;;
6344;SDS011;3205;42.666;23.264;2023-11-21T09:16:31;40.50;;;20.23;;
6344;SDS011;3205;42.666;23.264;2023-11-21T09:18:58;37.00;;;19.93;;
6344;SDS011;3205;42.666;23.264;2023-11-21T09:21:24;38.43;;;20.73;;
6344;SDS011;3205;42.666;23.264;2023-11-21T09:23:50;40.60;;;20.57;;
6344;SDS011;3205;42.666;23.264;2023-11-21T09:26:18;46.40;;;19.27;;
6344;SDS011;3205;42.666;23.264;2023-11-21T09:28:44;38.13;;;19.07;;
6344;SDS011;3205;42.666;23.264;2023-11-21T09:31:12;50.87;;;22.87;;
6344;SDS011;3205;42.666;23.264;2023-11-21T09:33:41;39.20;;;20.87;;
6344;SDS011;3205;42.666;23.264;2023-11-21T09:36:10;38.60;;;21.00;;
6344;SDS011;3205;42.666;23.264;2023-11-21T09:38:37;41.53;;;20.50;;
6344;SDS011;3205;42.666;23.264;2023-11-21T09:41:04;37.80;;;17.63;;
6344;SDS011;3205;42.666;23.264;2023-11-21T09:43:37;38.93;;;19.50;;
6344;SDS011;3205;42.666;23.264;2023-11-21T09:46:04;40.93;;;20.30;;
6344;SDS011;3205;42.666;23.264;2023-11-21T09:48:36;37.23;;;18.87;;
6344;SDS011;3205;42.666;23.264;2023-11-21T09:51:05;33.07;;;15.20;;
6344;SDS011;3205;42.666;23.264;2023-11-21T09:53:33;28.53;;;13.63;;
6344;SDS011;3205;42.666;23.264;2023-11-21T09:56:00;29.77;;;12.90;;
6344;SDS011;3205;42.666;23.264;2023-11-21T09:58:27;30.57;;;12.80;;
6344;SDS011;3205;42.666;23.264;2023-11-21T10:00:55;27.67;;;12.60;;
6344;SDS011;3205;42.666;23.264;2023-11-21T10:03:23;28.53;;;13.10;;
6344;SDS011;3205;42.666;23.264;2023-11-21T10:05:50;31.60;;;13.90;;
6344;SDS011;3205;42.666;23.264;2023-11-21T10:08:19;30.43;;;13.80;;
6344;SDS011;3205;42.666;23.264;2023-11-21T10:10:49;30.40;;;13.73;;
6344;SDS011;3205;42.666;23.264;2023-11-21T10:13:18;22.40;;;12.40;;
6344;SDS011;3205;42.666;23.264;2023-11-21T10:15:46;20.03;;;12.77;;
6344;SDS011;3205;42.666;23.264;2023-11-21T10:18:15;30.00;;;12.83;;
6344;SDS011;3205;42.666;23.264;2023-11-21T10:20:43;23.47;;;12.50;;
6344;SDS011;3205;42.666;23.264;2023-11-21T10:23:12;23.57;;;12.40;;
6344;SDS011;3205;42.666;23.264;2023-11-21T10:25:39;29.17;;;12.03;;
6344;SDS011;3205;42.666;23.264;2023-11-21T10:28:05;22.77;;;12.80;;
6344;SDS011;3205;42.666;23.264;2023-11-21T10:30:32;24.30;;;13.17;;
6344;SDS011;3205;42.666;23.264;2023-11-21T10:33:02;23.70;;;13.43;;
6344;SDS011;3205;42.666;23.264;2023-11-21T10:35:38;23.37;;;13.73;;
6344;SDS011;3205;42.666;23.264;2023-11-21T10:38:05;28.03;;;12.83;;
6344;SDS011;3205;42.666;23.264;2023-11-21T10:40:34;22.80;;;12.93;;
6344;SDS011;3205;42.666;23.264;2023-11-21T10:43:05;29.23;;;14.10;;
6344;SDS011;3205;42.666;23.264;2023-11-21T10:45:33;24.93;;;14.03;;
6344;SDS011;3205;42.666;23.264;2023-11-21T10:48:00;30.63;;;15.33;;
6344;SDS011;3205;42.666;23.264;2023-11-21T10:50:26;31.87;;;14.40;;
6344;SDS011;3205;42.666;23.264;2023-11-21T10:52:52;27.77;;;13.60;;
6344;SDS011;3205;42.666;23.264;2023-11-21T10:55:18;23.33;;;14.40;;
6344;SDS011;3205;42.666;23.264;2023-11-21T10:57:48;30.07;;;15.50;;
6344;SDS011;3205;42.666;23.264;2023-11-21T11:00:16;31.00;;;14.50;;
6344;SDS011;3205;42.666;23.264;2023-11-21T11:02:45;29.20;;;15.40;;
6344;SDS011;3205;42.666;23.264;2023-11-21T11:05:13;28.77;;;15.57;;
6344;SDS011;3205;42.666;23.264;2023-11-21T11:07:41;45.20;;;17.57;;
6344;SDS011;3205;42.666;23.264;2023-11-21T11:12:58;32.40;;;15.77;;
6344;SDS011;3205;42.666;23.264;2023-11-21T11:15:25;31.40;;;16.37;;
6344;SDS011;3205;42.666;23.264;2023-11-21T11:17:52;33.33;;;17.33;;
6344;SDS011;3205;42.666;23.264;2023-11-21T11:20:22;38.13;;;17.23;;
6344;SDS011;3205;42.666;23.264;2023-11-21T11:22:56;30.43;;;17.57;;
6344;SDS011;3205;42.666;23.264;2023-11-21T11:25:40;33.40;;;18.73;;
6344;SDS011;3205;42.666;23.264;2023-11-21T11:28:19;37.57;;;18.77;;
6344;SDS011;3205;42.666;23.264;2023-11-21T11:30:51;34.60;;;19.33;;
6344;SDS011;3205;42.666;23.264;2023-11-21T11:33:31;34.60;;;19.80;;
6344;SDS011;3205;42.666;23.264;2023-11-21T11:36:03;38.57;;;20.20;;
6344;SDS011;3205;42.666;23.264;2023-11-21T11:38:33;31.87;;;20.13;;
6344;SDS011;3205;42.666;23.264;2023-11-21T11:41:01;33.17;;;18.03;;
6344;SDS011;3205;42.666;23.264;2023-11-21T11:43:29;30.07;;;16.70;;
6344;SDS011;3205;42.666;23.264;2023-11-21T11:45:59;33.13;;;16.23;;
6344;SDS011;3205;42.666;23.264;2023-11-21T11:48:29;32.53;;;18.03;;
6344;SDS011;3205;42.666;23.264;2023-11-21T11:51:02;26.53;;;15.77;;
6344;SDS011;3205;42.666;23.264;2023-11-21T11:53:33;33.00;;;15.93;;
6344;SDS011;3205;42.666;23.264;2023-11-21T11:56:21;40.13;;;18.00;;
6344;SDS011;3205;42.666;23.264;2023-11-21T11:58:51;33.93;;;17.13;;
6344;SDS011;3205;42.666;23.264;2023-11-21T12:01:18;31.63;;;17.10;;
6344;SDS011;3205;42.666;23.264;2023-11-21T12:03:45;27.07;;;17.13;;
6344;SDS011;3205;42.666;23.264;2023-11-21T12:06:51;34.83;;;17.87;;
6344;SDS011;3205;42.666;23.264;2023-11-21T12:09:18;44.63;;;23.77;;
6344;SDS011;3205;42.666;23.264;2023-11-21T12:11:45;61.37;;;27.70;;
6344;SDS011;3205;42.666;23.264;2023-11-21T12:14:13;51.73;;;25.13;;
6344;SDS011;3205;42.666;23.264;2023-11-21T12:16:39;43.80;;;20.60;;
6344;SDS011;3205;42.666;23.264;2023-11-21T12:19:06;36.57;;;19.67;;
6344;SDS011;3205;42.666;23.264;2023-11-21T12:21:32;46.50;;;20.13;;
6344;SDS011;3205;42.666;23.264;2023-11-21T12:23:59;47.60;;;22.37;;
6344;SDS011;3205;42.666;23.264;2023-11-21T12:26:25;39.27;;;21.23;;
6344;SDS011;3205;42.666;23.264;2023-11-21T12:28:51;42.07;;;21.70;;
6344;SDS011;3205;42.666;23.264;2023-11-21T12:31:21;42.57;;;22.73;;
6344;SDS011;3205;42.666;23.264;2023-11-21T12:33:47;59.57;;;25.43;;
6344;SDS011;3205;42.666;23.264;2023-11-21T12:36:14;43.87;;;25.57;;
6344;SDS011;3205;42.666;23.264;2023-11-21T12:38:41;46.17;;;24.80;;
6344;SDS011;3205;42.666;23.264;2023-11-21T12:41:07;43.87;;;23.47;;
6344;SDS011;3205;42.666;23.264;2023-11-21T12:43:35;49.27;;;23.77;;
6344;SDS011;3205;42.666;23.264;2023-11-21T12:46:06;44.83;;;24.80;;
6344;SDS011;3205;42.666;23.264;2023-11-21T12:48:36;46.70;;;24.63;;
6344;SDS011;3205;42.666;23.264;2023-11-21T12:51:04;44.47;;;24.50;;
6344;SDS011;3205;42.666;23.264;2023-11-21T12:53:31;44.17;;;25.50;;
6344;SDS011;3205;42.666;23.264;2023-11-21T12:56:02;48.13;;;24.60;;
6344;SDS011;3205;42.666;23.264;2023-11-21T12:58:31;40.80;;;24.07;;
6344;SDS011;3205;42.666;23.264;2023-11-21T13:00:59;48.43;;;25.03;;
6344;SDS011;3205;42.666;23.264;2023-11-21T13:03:29;40.60;;;23.00;;
6344;SDS011;3205;42.666;23.264;2023-11-21T13:05:56;40.13;;;23.13;;
6344;SDS011;3205;42.666;23.264;2023-11-21T13:08:24;44.53;;;23.30;;
6344;SDS011;3205;42.666;23.264;2023-11-21T13:10:52;47.17;;;24.80;;
6344;SDS011;3205;42.666;23.264;2023-11-21T13:13:20;54.03;;;24.50;;
6344;SDS011;3205;42.666;23.264;2023-11-21T13:15:47;43.40;;;23.97;;
6344;SDS011;3205;42.666;23.264;2023-11-21T13:18:14;42.67;;;23.93;;
6344;SDS011;3205;42.666;23.264;2023-11-21T13:20:42;47.43;;;25.10;;
6344;SDS011;3205;42.666;23.264;2023-11-21T13:23:10;43.50;;;24.17;;
6344;SDS011;3205;42.666;23.264;2023-11-21T13:25:37;42.93;;;24.37;;
6344;SDS011;3205;42.666;23.264;2023-11-21T13:28:06;45.90;;;23.60;;
6344;SDS011;3205;42.666;23.264;2023-11-21T13:30:32;46.40;;;25.03;;
6344;SDS011;3205;42.666;23.264;2023-11-21T13:32:59;46.63;;;24.53;;
6344;SDS011;3205;42.666;23.264;2023-11-21T13:35:27;44.63;;;25.37;;
6344;SDS011;3205;42.666;23.264;2023-11-21T13:38:03;44.93;;;24.97;;
6344;SDS011;3205;42.666;23.264;2023-11-21T13:40:32;49.77;;;25.27;;
6344;SDS011;3205;42.666;23.264;2023-11-21T13:43:05;43.77;;;25.57;;
6344;SDS011;3205;42.666;23.264;2023-11-21T13:45:34;41.20;;;25.03;;
6344;SDS011;3205;42.666;23.264;2023-11-21T13:48:01;44.10;;;23.17;;
6344;SDS011;3205;42.666;23.264;2023-11-21T13:50:30;46.17;;;24.47;;
6344;SDS011;3205;42.666;23.264;2023-11-21T13:52:59;42.97;;;25.57;;
6344;SDS011;3205;42.666;23.264;2023-11-21T13:55:29;45.37;;;25.43;;
6344;SDS011;3205;42.666;23.264;2023-11-21T13:57:56;45.43;;;25.57;;
6344;SDS011;3205;42.666;23.264;2023-11-21T14:00:22;57.97;;;27.43;;
6344;SDS011;3205;42.666;23.264;2023-11-21T14:03:06;61.87;;;24.83;;
6344;SDS011;3205;42.666;23.264;2023-11-21T14:05:41;52.80;;;26.97;;
6344;SDS011;3205;42.666;23.264;2023-11-21T14:08:08;52.23;;;27.63;;
6344;SDS011;3205;42.666;23.264;2023-11-21T14:10:37;53.10;;;25.07;;
6344;SDS011;3205;42.666;23.264;2023-11-21T14:13:08;42.87;;;24.00;;
6344;SDS011;3205;42.666;23.264;2023-11-21T14:15:35;51.73;;;25.10;;
6344;SDS011;3205;42.666;23.264;2023-11-21T14:18:06;62.77;;;26.80;;
6344;SDS011;3205;42.666;23.264;2023-11-21T14:20:35;41.50;;;25.20;;
6344;SDS011;3205;42.666;23.264;2023-11-21T14:23:02;46.80;;;27.57;;
6344;SDS011;3205;42.666;23.264;2023-11-21T14:25:29;61.27;;;28.10;;
6344;SDS011;3205;42.666;23.264;2023-11-21T14:27:55;65.40;;;27.57;;
6344;SDS011;3205;42.666;23.264;2023-11-21T14:30:23;72.80;;;27.97;;
6344;SDS011;3205;42.666;23.264;2023-11-21T14:32:50;52.93;;;29.13;;
6344;SDS011;3205;42.666;23.264;2023-11-21T14:35:16;58.97;;;28.90;;
6344;SDS011;3205;42.666;23.264;2023-11-21T14:37:42;56.27;;;28.60;;
6344;SDS011;3205;42.666;23.264;2023-11-21T14:40:09;56.57;;;29.90;;